sensor_id;sensor_type;location;lat;lon;timestamp;pressure;altitude;pressure_sealevel;temperature;humidity
36284;BME280;56085;48.910;9.478;2023-03-03T00:02:01;98349.78;;;1.62;69.44
36284;BME280;56085;48.910;9.478;2023-03-03T00:04:26;98350.00;;;1.65;69.76
36284;BME280;56085;48.910;9.478;2023-03-03T00:06:51;98344.44;;;1.56;70.06
36284;BME280;56085;48.910;9.478;2023-03-03T00:09:17;98339.97;;;1.47;69.65
36284;BME280;56085;48.910;9.478;2023-03-03T00:11:42;98342.09;;;1.50;70.25
36284;BME280;56085;48.910;9.478;2023-03-03T00:14:17;98341.91;;;1.46;69.84
36284;BME280;56085;48.910;9.478;2023-03-03T00:16:46;98345.91;;;1.35;70.22
36284;BME280;56085;48.910;9.478;2023-03-03T00:19:18;98354.56;;;1.23;70.49
36284;BME280;56085;48.910;9.478;2023-03-03T00:21:45;98344.16;;;1.25;70.27
36284;BME280;56085;48.910;9.478;2023-03-03T00:26:51;98350.13;;;1.27;70.66
36284;BME280;56085;48.910;9.478;2023-03-03T00:31:47;98348.44;;;1.12;71.16
36284;BME280;56085;48.910;9.478;2023-03-03T00:34:19;98355.31;;;1.10;71.58
36284;BME280;56085;48.910;9.478;2023-03-03T00:36:48;98351.34;;;1.02;71.80
36284;BME280;56085;48.910;9.478;2023-03-03T00:39:21;98349.22;;;0.99;71.70
36284;BME280;56085;48.910;9.478;2023-03-03T00:41:50;98353.25;;;1.01;72.05
36284;BME280;56085;48.910;9.478;2023-03-03T00:45:00;98347.44;;;0.89;71.69
36284;BME280;56085;48.910;9.478;2023-03-03T00:47:01;98354.38;;;0.81;72.59
36284;BME280;56085;48.910;9.478;2023-03-03T00:49:36;98360.22;;;0.75;72.58
36284;BME280;56085;48.910;9.478;2023-03-03T00:52:01;98352.03;;;0.75;72.67
36284;BME280;56085;48.910;9.478;2023-03-03T00:54:27;98359.19;;;0.71;72.65
36284;BME280;56085;48.910;9.478;2023-03-03T00:56:52;98355.06;;;0.73;72.76
36284;BME280;56085;48.910;9.478;2023-03-03T00:59:17;98352.63;;;0.72;72.76
36284;BME280;56085;48.910;9.478;2023-03-03T01:01:42;98357.03;;;0.67;73.28
36284;BME280;56085;48.910;9.478;2023-03-03T01:04:08;98358.34;;;0.70;73.16
36284;BME280;56085;48.910;9.478;2023-03-03T01:06:33;98353.44;;;0.72;73.17
36284;BME280;56085;48.910;9.478;2023-03-03T01:08:58;98359.63;;;0.78;73.11
36284;BME280;56085;48.910;9.478;2023-03-03T01:11:24;98350.19;;;0.70;73.39
36284;BME280;56085;48.910;9.478;2023-03-03T01:13:50;98346.47;;;0.66;74.11
36284;BME280;56085;48.910;9.478;2023-03-03T01:16:16;98345.63;;;0.65;74.02
36284;BME280;56085;48.910;9.478;2023-03-03T01:18:42;98343.19;;;0.64;73.94
36284;BME280;56085;48.910;9.478;2023-03-03T01:21:07;98339.44;;;0.60;73.90
36284;BME280;56085;48.910;9.478;2023-03-03T01:23:33;98354.97;;;0.59;74.45
36284;BME280;56085;48.910;9.478;2023-03-03T01:25:58;98353.66;;;0.57;73.98
36284;BME280;56085;48.910;9.478;2023-03-03T01:28:23;98344.19;;;0.54;74.41
36284;BME280;56085;48.910;9.478;2023-03-03T01:30:49;98355.56;;;0.56;74.63
36284;BME280;56085;48.910;9.478;2023-03-03T01:33:14;98346.91;;;0.54;74.81
36284;BME280;56085;48.910;9.478;2023-03-03T01:35:44;98344.03;;;0.45;75.25
36284;BME280;56085;48.910;9.478;2023-03-03T01:38:09;98349.72;;;0.44;75.23
36284;BME280;56085;48.910;9.478;2023-03-03T01:40:34;98354.31;;;0.29;75.43
36284;BME280;56085;48.910;9.478;2023-03-03T01:43:00;98352.09;;;0.31;75.36
36284;BME280;56085;48.910;9.478;2023-03-03T01:45:29;98352.22;;;0.21;75.22
36284;BME280;56085;48.910;9.478;2023-03-03T01:48:05;98351.56;;;0.10;75.54
36284;BME280;56085;48.910;9.478;2023-03-03T01:50:39;98348.28;;;0.08;76.01
36284;BME280;56085;48.910;9.478;2023-03-03T01:53:08;98347.66;;;0.16;76.14
36284;BME280;56085;48.910;9.478;2023-03-03T01:55:36;98344.13;;;0.16;76.26
36284;BME280;56085;48.910;9.478;2023-03-03T01:58:08;98336.91;;;0.06;76.80
36284;BME280;56085;48.910;9.478;2023-03-03T02:00:35;98330.81;;;0.14;76.67
36284;BME280;56085;48.910;9.478;2023-03-03T02:03:02;98330.59;;;0.11;76.26
36284;BME280;56085;48.910;9.478;2023-03-03T02:05:27;98326.78;;;0.12;76.74
36284;BME280;56085;48.910;9.478;2023-03-03T02:07:53;98327.22;;;0.00;76.74
36284;BME280;56085;48.910;9.478;2023-03-03T02:10:18;98325.50;;;0.04;76.90
36284;BME280;56085;48.910;9.478;2023-03-03T02:12:52;98326.56;;;0.08;77.18
36284;BME280;56085;48.910;9.478;2023-03-03T02:15:19;98322.94;;;0.13;77.28
36284;BME280;56085;48.910;9.478;2023-03-03T02:17:46;98325.16;;;0.11;76.83
36284;BME280;56085;48.910;9.478;2023-03-03T02:20:14;98322.41;;;-0.08;77.14
36284;BME280;56085;48.910;9.478;2023-03-03T02:22:44;98323.44;;;-0.28;77.31
36284;BME280;56085;48.910;9.478;2023-03-03T02:25:13;98328.84;;;-0.23;77.06
36284;BME280;56085;48.910;9.478;2023-03-03T02:27:42;98327.53;;;-0.31;77.31
36284;BME280;56085;48.910;9.478;2023-03-03T02:30:14;98321.91;;;-0.34;77.47
36284;BME280;56085;48.910;9.478;2023-03-03T02:32:39;98328.97;;;-0.33;77.79
36284;BME280;56085;48.910;9.478;2023-03-03T02:35:22;98330.97;;;-0.44;77.34
36284;BME280;56085;48.910;9.478;2023-03-03T02:37:49;98329.06;;;-0.44;77.76
36284;BME280;56085;48.910;9.478;2023-03-03T02:40:15;98328.03;;;-0.48;78.18
36284;BME280;56085;48.910;9.478;2023-03-03T02:42:43;98338.13;;;-0.54;78.49
36284;BME280;56085;48.910;9.478;2023-03-03T02:45:09;98328.88;;;-0.52;78.27
36284;BME280;56085;48.910;9.478;2023-03-03T02:47:34;98336.16;;;-0.48;78.47
36284;BME280;56085;48.910;9.478;2023-03-03T02:49:59;98331.78;;;-0.44;78.52
36284;BME280;56085;48.910;9.478;2023-03-03T02:52:25;98333.97;;;-0.46;78.63
36284;BME280;56085;48.910;9.478;2023-03-03T02:54:50;98338.25;;;-0.40;79.12
36284;BME280;56085;48.910;9.478;2023-03-03T02:57:15;98342.38;;;-0.42;79.28
36284;BME280;56085;48.910;9.478;2023-03-03T02:59:40;98351.59;;;-0.43;78.61
36284;BME280;56085;48.910;9.478;2023-03-03T03:02:05;98349.47;;;-0.46;78.68
36284;BME280;56085;48.910;9.478;2023-03-03T03:04:32;98342.47;;;-0.52;78.56
36284;BME280;56085;48.910;9.478;2023-03-03T03:06:58;98342.53;;;-0.63;78.85
36284;BME280;56085;48.910;9.478;2023-03-03T03:09:24;98339.50;;;-0.56;78.41
36284;BME280;56085;48.910;9.478;2023-03-03T03:11:49;98341.72;;;-0.58;78.75
36284;BME280;56085;48.910;9.478;2023-03-03T03:14:15;98336.28;;;-0.58;78.59
36284;BME280;56085;48.910;9.478;2023-03-03T03:16:40;98336.56;;;-0.60;79.14
36284;BME280;56085;48.910;9.478;2023-03-03T03:19:05;98332.97;;;-0.55;79.25
36284;BME280;56085;48.910;9.478;2023-03-03T03:21:31;98342.41;;;-0.47;79.21
36284;BME280;56085;48.910;9.478;2023-03-03T03:23:56;98348.53;;;-0.37;79.38
36284;BME280;56085;48.910;9.478;2023-03-03T03:26:22;98350.63;;;-0.28;79.57
36284;BME280;56085;48.910;9.478;2023-03-03T03:28:48;98350.41;;;-0.32;79.03
36284;BME280;56085;48.910;9.478;2023-03-03T03:31:14;98349.56;;;-0.32;78.90
36284;BME280;56085;48.910;9.478;2023-03-03T03:33:39;98353.88;;;-0.26;78.67
36284;BME280;56085;48.910;9.478;2023-03-03T03:36:04;98350.34;;;-0.27;78.59
36284;BME280;56085;48.910;9.478;2023-03-03T03:38:30;98346.53;;;-0.26;79.08
36284;BME280;56085;48.910;9.478;2023-03-03T03:40:56;98346.44;;;-0.21;79.19
36284;BME280;56085;48.910;9.478;2023-03-03T03:43:21;98350.16;;;-0.11;79.60
36284;BME280;56085;48.910;9.478;2023-03-03T03:45:47;98341.94;;;-0.06;79.12
36284;BME280;56085;48.910;9.478;2023-03-03T03:48:12;98340.28;;;-0.02;79.20
36284;BME280;56085;48.910;9.478;2023-03-03T03:50:37;98345.41;;;-0.01;79.13
36284;BME280;56085;48.910;9.478;2023-03-03T03:53:03;98338.31;;;0.04;78.57
36284;BME280;56085;48.910;9.478;2023-03-03T03:55:28;98351.16;;;-0.02;78.90
36284;BME280;56085;48.910;9.478;2023-03-03T03:57:54;98342.47;;;-0.04;78.56
36284;BME280;56085;48.910;9.478;2023-03-03T04:00:20;98339.59;;;-0.13;78.49
36284;BME280;56085;48.910;9.478;2023-03-03T04:02:45;98351.78;;;-0.10;78.21
36284;BME280;56085;48.910;9.478;2023-03-03T04:05:10;98349.94;;;-0.15;77.68
36284;BME280;56085;48.910;9.478;2023-03-03T04:07:35;98344.44;;;-0.10;78.19
36284;BME280;56085;48.910;9.478;2023-03-03T04:10:00;98339.47;;;-0.03;77.97
36284;BME280;56085;48.910;9.478;2023-03-03T04:12:25;98343.66;;;0.09;78.01
36284;BME280;56085;48.910;9.478;2023-03-03T04:14:51;98352.84;;;0.13;78.33
36284;BME280;56085;48.910;9.478;2023-03-03T04:17:16;98337.00;;;0.20;78.45
36284;BME280;56085;48.910;9.478;2023-03-03T04:19:42;98348.13;;;0.24;78.38
36284;BME280;56085;48.910;9.478;2023-03-03T04:22:07;98349.72;;;0.25;78.78
36284;BME280;56085;48.910;9.478;2023-03-03T04:24:32;98342.22;;;0.16;78.43
36284;BME280;56085;48.910;9.478;2023-03-03T04:26:57;98337.59;;;0.17;78.12
36284;BME280;56085;48.910;9.478;2023-03-03T04:29:22;98345.25;;;0.15;77.91
36284;BME280;56085;48.910;9.478;2023-03-03T04:31:48;98346.28;;;0.19;77.77
36284;BME280;56085;48.910;9.478;2023-03-03T04:34:13;98356.69;;;0.12;78.14
36284;BME280;56085;48.910;9.478;2023-03-03T04:36:38;98356.16;;;0.10;77.81
36284;BME280;56085;48.910;9.478;2023-03-03T04:39:03;98357.63;;;0.02;78.28
36284;BME280;56085;48.910;9.478;2023-03-03T04:41:28;98363.81;;;0.08;77.86
36284;BME280;56085;48.910;9.478;2023-03-03T04:43:54;98367.03;;;0.10;77.89
36284;BME280;56085;48.910;9.478;2023-03-03T04:46:19;98369.63;;;0.20;77.96
36284;BME280;56085;48.910;9.478;2023-03-03T04:48:44;98375.94;;;0.15;77.81
36284;BME280;56085;48.910;9.478;2023-03-03T04:51:09;98377.03;;;0.14;77.74
36284;BME280;56085;48.910;9.478;2023-03-03T04:53:35;98371.59;;;0.14;77.50
36284;BME280;56085;48.910;9.478;2023-03-03T04:56:02;98381.09;;;0.17;77.80
36284;BME280;56085;48.910;9.478;2023-03-03T04:58:27;98374.84;;;0.16;77.36
36284;BME280;56085;48.910;9.478;2023-03-03T05:00:53;98380.00;;;0.18;78.00
36284;BME280;56085;48.910;9.478;2023-03-03T05:03:19;98375.91;;;0.21;77.64
36284;BME280;56085;48.910;9.478;2023-03-03T05:05:45;98374.28;;;0.20;78.26
36284;BME280;56085;48.910;9.478;2023-03-03T05:08:10;98375.78;;;0.07;78.17
36284;BME280;56085;48.910;9.478;2023-03-03T05:10:36;98374.63;;;0.13;78.60
36284;BME280;56085;48.910;9.478;2023-03-03T05:13:01;98363.69;;;0.18;78.08
36284;BME280;56085;48.910;9.478;2023-03-03T05:15:26;98369.75;;;0.10;78.61
36284;BME280;56085;48.910;9.478;2023-03-03T05:17:52;98374.28;;;0.20;78.23
36284;BME280;56085;48.910;9.478;2023-03-03T05:20:17;98379.06;;;0.28;78.91
36284;BME280;56085;48.910;9.478;2023-03-03T05:22:42;98378.69;;;0.34;78.31
36284;BME280;56085;48.910;9.478;2023-03-03T05:25:08;98373.84;;;0.31;78.27
36284;BME280;56085;48.910;9.478;2023-03-03T05:27:35;98383.19;;;0.25;78.32
36284;BME280;56085;48.910;9.478;2023-03-03T05:30:00;98379.91;;;0.23;78.60
36284;BME280;56085;48.910;9.478;2023-03-03T05:32:25;98388.03;;;0.28;78.75
36284;BME280;56085;48.910;9.478;2023-03-03T05:34:50;98379.56;;;0.30;78.46
36284;BME280;56085;48.910;9.478;2023-03-03T05:37:16;98392.31;;;0.34;78.67
36284;BME280;56085;48.910;9.478;2023-03-03T05:39:41;98395.56;;;0.37;78.20
36284;BME280;56085;48.910;9.478;2023-03-03T05:42:08;98398.31;;;0.31;78.28
36284;BME280;56085;48.910;9.478;2023-03-03T05:44:35;98397.75;;;0.34;77.93
36284;BME280;56085;48.910;9.478;2023-03-03T05:47:00;98404.84;;;0.30;77.86
36284;BME280;56085;48.910;9.478;2023-03-03T05:49:25;98404.09;;;0.25;77.47
36284;BME280;56085;48.910;9.478;2023-03-03T05:51:50;98404.94;;;0.25;78.03
36284;BME280;56085;48.910;9.478;2023-03-03T05:54:16;98400.66;;;0.19;77.84
36284;BME280;56085;48.910;9.478;2023-03-03T05:56:41;98404.69;;;0.22;77.93
36284;BME280;56085;48.910;9.478;2023-03-03T05:59:06;98408.75;;;0.24;78.24
36284;BME280;56085;48.910;9.478;2023-03-03T06:01:31;98404.66;;;0.27;77.82
36284;BME280;56085;48.910;9.478;2023-03-03T06:03:57;98411.75;;;0.23;78.33
36284;BME280;56085;48.910;9.478;2023-03-03T06:06:22;98411.75;;;0.23;78.50
36284;BME280;56085;48.910;9.478;2023-03-03T06:08:47;98405.97;;;0.29;78.17
36284;BME280;56085;48.910;9.478;2023-03-03T06:11:12;98416.56;;;0.31;78.75
36284;BME280;56085;48.910;9.478;2023-03-03T06:13:37;98412.22;;;0.30;78.56
36284;BME280;56085;48.910;9.478;2023-03-03T06:16:03;98423.59;;;0.32;77.94
36284;BME280;56085;48.910;9.478;2023-03-03T06:18:29;98421.13;;;0.36;78.19
36284;BME280;56085;48.910;9.478;2023-03-03T06:20:54;98427.38;;;0.36;77.94
36284;BME280;56085;48.910;9.478;2023-03-03T06:23:19;98428.03;;;0.28;78.27
36284;BME280;56085;48.910;9.478;2023-03-03T06:25:45;98434.19;;;0.33;78.47
36284;BME280;56085;48.910;9.478;2023-03-03T06:28:10;98437.16;;;0.37;78.62
36284;BME280;56085;48.910;9.478;2023-03-03T06:30:35;98443.94;;;0.40;78.57
36284;BME280;56085;48.910;9.478;2023-03-03T06:33:00;98446.38;;;0.41;78.71
36284;BME280;56085;48.910;9.478;2023-03-03T06:35:26;98450.94;;;0.46;78.84
36284;BME280;56085;48.910;9.478;2023-03-03T06:37:51;98444.94;;;0.44;78.71
36284;BME280;56085;48.910;9.478;2023-03-03T06:40:16;98443.84;;;0.45;78.52
36284;BME280;56085;48.910;9.478;2023-03-03T06:42:41;98445.47;;;0.46;78.91
36284;BME280;56085;48.910;9.478;2023-03-03T06:45:06;98454.16;;;0.48;78.95
36284;BME280;56085;48.910;9.478;2023-03-03T06:47:32;98449.75;;;0.52;78.89
36284;BME280;56085;48.910;9.478;2023-03-03T06:49:57;98449.16;;;0.55;78.65
36284;BME280;56085;48.910;9.478;2023-03-03T06:52:24;98453.09;;;0.44;78.31
36284;BME280;56085;48.910;9.478;2023-03-03T06:54:49;98460.94;;;0.50;78.65
36284;BME280;56085;48.910;9.478;2023-03-03T06:57:27;98450.50;;;0.58;78.51
36284;BME280;56085;48.910;9.478;2023-03-03T06:59:53;98453.38;;;0.66;78.51
36284;BME280;56085;48.910;9.478;2023-03-03T07:02:20;98454.13;;;0.72;78.41
36284;BME280;56085;48.910;9.478;2023-03-03T07:04:45;98457.31;;;0.79;78.04
36284;BME280;56085;48.910;9.478;2023-03-03T07:07:15;98453.53;;;0.75;78.45
36284;BME280;56085;48.910;9.478;2023-03-03T07:09:40;98469.59;;;0.77;78.51
36284;BME280;56085;48.910;9.478;2023-03-03T07:12:12;98460.97;;;0.89;78.14
36284;BME280;56085;48.910;9.478;2023-03-03T07:14:41;98454.66;;;0.93;77.92
36284;BME280;56085;48.910;9.478;2023-03-03T07:17:09;98463.84;;;0.97;78.18
36284;BME280;56085;48.910;9.478;2023-03-03T07:19:35;98467.63;;;1.01;78.25
36284;BME280;56085;48.910;9.478;2023-03-03T07:24:58;98471.38;;;1.06;77.40
36284;BME280;56085;48.910;9.478;2023-03-03T07:27:26;98470.50;;;1.10;77.69
36284;BME280;56085;48.910;9.478;2023-03-03T07:29:53;98470.13;;;1.17;77.43
36284;BME280;56085;48.910;9.478;2023-03-03T07:32:36;98470.63;;;1.19;77.56
36284;BME280;56085;48.910;9.478;2023-03-03T07:35:25;98473.88;;;1.21;77.44
36284;BME280;56085;48.910;9.478;2023-03-03T07:37:47;98470.63;;;1.38;77.35
36284;BME280;56085;48.910;9.478;2023-03-03T07:42:47;98484.28;;;1.52;76.72
36284;BME280;56085;48.910;9.478;2023-03-03T07:47:50;98487.22;;;1.74;77.46
36284;BME280;56085;48.910;9.478;2023-03-03T07:50:19;98485.41;;;1.84;76.97
36284;BME280;56085;48.910;9.478;2023-03-03T07:52:56;98492.91;;;1.92;77.25
36284;BME280;56085;48.910;9.478;2023-03-03T07:55:32;98503.34;;;2.04;76.41
36284;BME280;56085;48.910;9.478;2023-03-03T07:58:05;98500.44;;;2.14;76.80
36284;BME280;56085;48.910;9.478;2023-03-03T08:03:09;98501.16;;;2.20;76.31
36284;BME280;56085;48.910;9.478;2023-03-03T08:05:40;98504.47;;;2.17;75.94
36284;BME280;56085;48.910;9.478;2023-03-03T08:10:43;98500.34;;;2.33;75.81
36284;BME280;56085;48.910;9.478;2023-03-03T08:13:17;98506.03;;;2.37;75.56
36284;BME280;56085;48.910;9.478;2023-03-03T08:15:42;98495.50;;;2.30;75.53
36284;BME280;56085;48.910;9.478;2023-03-03T08:18:20;98500.34;;;2.33;75.42
36284;BME280;56085;48.910;9.478;2023-03-03T08:20:47;98503.38;;;2.32;75.45
36284;BME280;56085;48.910;9.478;2023-03-03T08:23:13;98503.38;;;2.32;74.73
36284;BME280;56085;48.910;9.478;2023-03-03T08:25:39;98496.72;;;2.38;74.83
36284;BME280;56085;48.910;9.478;2023-03-03T08:28:06;98500.69;;;2.46;74.72
36284;BME280;56085;48.910;9.478;2023-03-03T08:30:31;98495.72;;;2.48;74.47
36284;BME280;56085;48.910;9.478;2023-03-03T08:32:56;98497.84;;;2.37;75.15
36284;BME280;56085;48.910;9.478;2023-03-03T08:35:22;98504.53;;;2.44;74.66
36284;BME280;56085;48.910;9.478;2023-03-03T08:37:47;98508.25;;;2.49;74.94
36284;BME280;56085;48.910;9.478;2023-03-03T08:40:12;98512.50;;;2.55;74.87
36284;BME280;56085;48.910;9.478;2023-03-03T08:42:37;98519.78;;;2.59;74.85
36284;BME280;56085;48.910;9.478;2023-03-03T08:45:03;98510.19;;;2.62;74.94
36284;BME280;56085;48.910;9.478;2023-03-03T08:47:28;98508.25;;;2.76;74.79
36284;BME280;56085;48.910;9.478;2023-03-03T08:49:53;98514.31;;;2.87;74.52
36284;BME280;56085;48.910;9.478;2023-03-03T08:52:18;98515.69;;;3.12;75.02
36284;BME280;56085;48.910;9.478;2023-03-03T08:54:43;98527.47;;;3.36;74.71
36284;BME280;56085;48.910;9.478;2023-03-03T08:57:09;98524.06;;;3.66;74.39
36284;BME280;56085;48.910;9.478;2023-03-03T08:59:34;98515.06;;;3.89;73.33
36284;BME280;56085;48.910;9.478;2023-03-03T09:02:03;98520.63;;;4.06;73.18
36284;BME280;56085;48.910;9.478;2023-03-03T09:04:28;98527.44;;;4.17;72.37
36284;BME280;56085;48.910;9.478;2023-03-03T09:06:54;98530.44;;;4.30;71.88
36284;BME280;56085;48.910;9.478;2023-03-03T09:09:19;98526.31;;;4.41;71.43
36284;BME280;56085;48.910;9.478;2023-03-03T09:11:44;98526.19;;;4.55;70.91
36284;BME280;56085;48.910;9.478;2023-03-03T09:14:12;98522.53;;;4.68;70.04
36284;BME280;56085;48.910;9.478;2023-03-03T09:16:38;98530.31;;;4.75;69.87
36284;BME280;56085;48.910;9.478;2023-03-03T09:21:48;98529.91;;;5.08;68.52
36284;BME280;56085;48.910;9.478;2023-03-03T09:24:20;98538.34;;;5.20;68.19
36284;BME280;56085;48.910;9.478;2023-03-03T09:26:48;98534.81;;;5.29;67.64
36284;BME280;56085;48.910;9.478;2023-03-03T09:34:12;98537.22;;;5.30;66.25
36284;BME280;56085;48.910;9.478;2023-03-03T09:36:39;98534.19;;;5.75;65.96
36284;BME280;56085;48.910;9.478;2023-03-03T09:44:14;98532.81;;;6.43;64.75
36284;BME280;56085;48.910;9.478;2023-03-03T09:51:58;98546.53;;;6.90;62.79
36284;BME280;56085;48.910;9.478;2023-03-03T09:54:42;98545.31;;;7.09;62.65
36284;BME280;56085;48.910;9.478;2023-03-03T09:57:16;98537.06;;;7.09;61.94
36284;BME280;56085;48.910;9.478;2023-03-03T09:59:49;98527.84;;;7.05;61.47
36284;BME280;56085;48.910;9.478;2023-03-03T10:02:30;98538.19;;;7.08;60.79
36284;BME280;56085;48.910;9.478;2023-03-03T10:05:02;98540.88;;;7.16;60.16
36284;BME280;56085;48.910;9.478;2023-03-03T10:12:49;98527.91;;;7.47;58.69
36284;BME280;56085;48.910;9.478;2023-03-03T10:15:19;98528.78;;;7.39;57.98
36284;BME280;56085;48.910;9.478;2023-03-03T10:26:03;98527.03;;;7.97;56.14
36284;BME280;56085;48.910;9.478;2023-03-03T10:38:35;98521.22;;;8.57;54.38
36284;BME280;56085;48.910;9.478;2023-03-03T10:44:02;98518.06;;;8.67;53.29
36284;BME280;56085;48.910;9.478;2023-03-03T10:49:25;98521.47;;;8.52;52.49
36284;BME280;56085;48.910;9.478;2023-03-03T10:52:03;98529.63;;;8.61;51.80
36284;BME280;56085;48.910;9.478;2023-03-03T11:02:42;98539.19;;;8.88;50.88
36284;BME280;56085;48.910;9.478;2023-03-03T11:07:45;98536.00;;;8.98;50.59
36284;BME280;56085;48.910;9.478;2023-03-03T11:13:10;98542.06;;;8.91;50.81
36284;BME280;56085;48.910;9.478;2023-03-03T11:31:11;98524.25;;;9.14;50.26
36284;BME280;56085;48.910;9.478;2023-03-03T11:36:23;98526.44;;;9.08;49.74
36284;BME280;56085;48.910;9.478;2023-03-03T11:38:58;98530.91;;;9.25;49.14
36284;BME280;56085;48.910;9.478;2023-03-03T11:43:52;98530.69;;;9.30;49.07
36284;BME280;56085;48.910;9.478;2023-03-03T11:46:21;98517.78;;;9.34;49.39
36284;BME280;56085;48.910;9.478;2023-03-03T11:48:58;98519.31;;;9.32;49.42
36284;BME280;56085;48.910;9.478;2023-03-03T11:51:36;98513.38;;;9.58;48.60
36284;BME280;56085;48.910;9.478;2023-03-03T11:54:04;98507.75;;;9.83;48.12
36284;BME280;56085;48.910;9.478;2023-03-03T11:56:34;98496.88;;;10.02;47.97
36284;BME280;56085;48.910;9.478;2023-03-03T11:59:12;98498.97;;;10.21;48.33
36284;BME280;56085;48.910;9.478;2023-03-03T12:01:46;98497.88;;;10.38;47.58
36284;BME280;56085;48.910;9.478;2023-03-03T12:04:14;98499.81;;;10.54;47.75
36284;BME280;56085;48.910;9.478;2023-03-03T12:09:32;98496.53;;;10.96;46.86
36284;BME280;56085;48.910;9.478;2023-03-03T12:12:05;98490.75;;;10.85;46.80
36284;BME280;56085;48.910;9.478;2023-03-03T12:14:38;98489.28;;;11.07;46.64
36284;BME280;56085;48.910;9.478;2023-03-03T12:17:18;98489.38;;;11.46;46.25
36284;BME280;56085;48.910;9.478;2023-03-03T12:27:38;98472.41;;;13.56;44.85
36284;BME280;56085;48.910;9.478;2023-03-03T12:30:08;98473.28;;;13.34;44.25
36284;BME280;56085;48.910;9.478;2023-03-03T12:37:54;98471.38;;;13.11;43.50
36284;BME280;56085;48.910;9.478;2023-03-03T12:40:33;98483.81;;;13.48;43.53
36284;BME280;56085;48.910;9.478;2023-03-03T12:47:49;98458.63;;;17.35;42.00
36284;BME280;56085;48.910;9.478;2023-03-03T12:50:22;98469.09;;;18.16;41.47
36284;BME280;56085;48.910;9.478;2023-03-03T12:53:05;98458.09;;;18.51;40.93
36284;BME280;56085;48.910;9.478;2023-03-03T12:58:22;98487.59;;;20.26;39.63
36284;BME280;56085;48.910;9.478;2023-03-03T13:05:47;98477.69;;;20.72;37.70
36284;BME280;56085;48.910;9.478;2023-03-03T13:11:16;98486.28;;;27.77;36.33
36284;BME280;56085;48.910;9.478;2023-03-03T13:13:51;98475.41;;;28.55;35.23
36284;BME280;56085;48.910;9.478;2023-03-03T13:16:20;98444.66;;;24.14;34.75
36284;BME280;56085;48.910;9.478;2023-03-03T13:18:59;98465.50;;;26.43;34.23
36284;BME280;56085;48.910;9.478;2023-03-03T13:22:07;98453.22;;;26.46;33.77
36284;BME280;56085;48.910;9.478;2023-03-03T13:26:54;98498.47;;;31.07;32.03
36284;BME280;56085;48.910;9.478;2023-03-03T13:29:34;98493.84;;;31.72;31.42
36284;BME280;56085;48.910;9.478;2023-03-03T13:34:43;98477.50;;;32.51;29.61
36284;BME280;56085;48.910;9.478;2023-03-03T13:45:04;98456.72;;;33.37;26.55
36284;BME280;56085;48.910;9.478;2023-03-03T13:47:42;98454.91;;;34.34;26.21
36284;BME280;56085;48.910;9.478;2023-03-03T13:57:55;98387.16;;;33.36;23.54
36284;BME280;56085;48.910;9.478;2023-03-03T14:00:29;98444.19;;;34.40;23.38
36284;BME280;56085;48.910;9.478;2023-03-03T14:07:51;98407.66;;;34.52;21.92
36284;BME280;56085;48.910;9.478;2023-03-03T14:15:16;98392.66;;;32.85;21.20
36284;BME280;56085;48.910;9.478;2023-03-03T14:22:48;98361.78;;;33.06;20.42
36284;BME280;56085;48.910;9.478;2023-03-03T14:25:15;98392.66;;;32.42;19.98
36284;BME280;56085;48.910;9.478;2023-03-03T14:33:28;98375.03;;;32.98;19.54
36284;BME280;56085;48.910;9.478;2023-03-03T14:35:38;98392.13;;;33.36;18.94
36284;BME280;56085;48.910;9.478;2023-03-03T14:40:33;98381.28;;;32.59;18.71
36284;BME280;56085;48.910;9.478;2023-03-03T14:42:59;98359.72;;;32.58;18.79
36284;BME280;56085;48.910;9.478;2023-03-03T14:45:38;98401.03;;;32.89;18.77
36284;BME280;56085;48.910;9.478;2023-03-03T14:48:25;98365.53;;;31.74;18.43
36284;BME280;56085;48.910;9.478;2023-03-03T14:50:50;98382.16;;;32.01;18.26
36284;BME280;56085;48.910;9.478;2023-03-03T14:55:42;98378.72;;;31.45;18.16
36284;BME280;56085;48.910;9.478;2023-03-03T15:00:48;98374.63;;;31.25;17.87
36284;BME280;56085;48.910;9.478;2023-03-03T15:03:19;98397.78;;;30.71;18.12
36284;BME280;56085;48.910;9.478;2023-03-03T15:05:49;98374.25;;;29.36;17.87
36284;BME280;56085;48.910;9.478;2023-03-03T15:08:14;98374.00;;;29.94;17.94
36284;BME280;56085;48.910;9.478;2023-03-03T15:10:41;98363.88;;;29.63;17.92
36284;BME280;56085;48.910;9.478;2023-03-03T15:15:50;98353.91;;;28.56;17.62
36284;BME280;56085;48.910;9.478;2023-03-03T15:18:16;98364.81;;;29.30;17.84
36284;BME280;56085;48.910;9.478;2023-03-03T15:20:42;98372.03;;;28.68;17.69
36284;BME280;56085;48.910;9.478;2023-03-03T15:23:20;98346.53;;;28.98;17.75
36284;BME280;56085;48.910;9.478;2023-03-03T15:31:11;98364.00;;;28.33;17.58
36284;BME280;56085;48.910;9.478;2023-03-03T15:33:45;98374.56;;;27.90;17.52
36284;BME280;56085;48.910;9.478;2023-03-03T15:36:16;98344.50;;;27.18;17.82
36284;BME280;56085;48.910;9.478;2023-03-03T15:48:52;98346.78;;;25.51;18.18
36284;BME280;56085;48.910;9.478;2023-03-03T15:51:26;98360.13;;;25.29;18.10
36284;BME280;56085;48.910;9.478;2023-03-03T15:54:08;98346.78;;;25.29;18.29
36284;BME280;56085;48.910;9.478;2023-03-03T15:56:43;98366.59;;;24.94;18.13
36284;BME280;56085;48.910;9.478;2023-03-03T16:01:58;98350.94;;;23.64;18.39
36284;BME280;56085;48.910;9.478;2023-03-03T16:04:25;98363.03;;;23.35;18.34
36284;BME280;56085;48.910;9.478;2023-03-03T16:14:34;98371.63;;;21.84;18.91
36284;BME280;56085;48.910;9.478;2023-03-03T16:17:18;98357.78;;;21.33;19.36
36284;BME280;56085;48.910;9.478;2023-03-03T16:19:59;98377.59;;;20.58;19.32
36284;BME280;56085;48.910;9.478;2023-03-03T16:24:58;98376.00;;;19.75;19.78
36284;BME280;56085;48.910;9.478;2023-03-03T16:27:28;98369.78;;;18.88;19.82
36284;BME280;56085;48.910;9.478;2023-03-03T16:30:02;98379.31;;;18.48;20.17
36284;BME280;56085;48.910;9.478;2023-03-03T16:35:24;98381.59;;;17.20;20.73
36284;BME280;56085;48.910;9.478;2023-03-03T16:37:57;98384.47;;;16.40;20.83
36284;BME280;56085;48.910;9.478;2023-03-03T16:42:50;98385.41;;;15.35;21.96
36284;BME280;56085;48.910;9.478;2023-03-03T16:52:54;98413.88;;;12.85;24.17
36284;BME280;56085;48.910;9.478;2023-03-03T16:55:24;98415.88;;;12.34;24.75
36284;BME280;56085;48.910;9.478;2023-03-03T16:57:56;98421.88;;;11.94;25.42